Time;durP1;ratioP1;P1;durP2;ratioP2;P2;SDS_P1;SDS_P2;PMS_P1;PMS_P2;Temp;Humidity;BMP_temperature;BMP_pressure;BME280_temperature;BME280_humidity;BME280_pressure;Samples;Min_cycle;Max_cycle;Signal;HPM_P1;HPM_P2
2023/05/05 00:01:05;;;;;;;16.45;13.82;;;;;;;18.27;61.68;101291.44;5072328;28;20043;-67
2023/05/05 00:03:33;;;;;;;15.65;14.15;;;;;;;18.07;62.63;101300.44;5072461;28;20074;-67
2023/05/05 00:05:58;;;;;;;18.15;14.38;;;;;;;18.12;62.68;101293.66;5072390;28;20490;-66
2023/05/05 00:08:23;;;;;;;19.08;13.02;;;;;;;17.97;63.42;101299.50;5073397;28;20028;-68
2023/05/05 00:10:52;;;;;;;15.40;13.95;;;;;;;17.98;63.67;101310.16;5073882;28;20021;-67
2023/05/05 00:13:18;;;;;;;16.65;15.00;;;;;;;18.00;63.82;101307.31;5073730;28;20101;-67
2023/05/05 00:15:45;;;;;;;17.58;15.60;;;;;;;17.88;64.39;101307.44;5073501;28;20029;-67
2023/05/05 00:18:12;;;;;;;17.10;15.10;;;;;;;17.78;65.02;101290.34;5073443;28;20525;-67
2023/05/05 00:20:37;;;;;;;17.92;15.80;;;;;;;17.75;65.26;101311.25;5073398;28;20068;-67
2023/05/05 00:23:05;;;;;;;16.30;14.80;;;;;;;17.75;65.85;101311.25;5073030;28;20032;-67
2023/05/05 00:25:31;;;;;;;16.88;15.18;;;;;;;17.60;66.95;101305.34;5073627;28;20048;-67
2023/05/05 00:27:56;;;;;;;18.40;16.65;;;;;;;17.56;67.28;101312.84;5055030;28;20365;-67
2023/05/05 00:30:22;;;;;;;18.77;16.15;;;;;;;17.56;67.49;101301.22;5072137;28;20543;-67
2023/05/05 00:32:48;;;;;;;19.33;17.40;;;;;;;17.59;67.64;101309.00;5071167;28;20020;-67
2023/05/05 00:35:14;;;;;;;18.42;16.63;;;;;;;17.51;68.33;101307.00;5073068;28;20067;-67
2023/05/05 00:37:40;;;;;;;18.23;16.55;;;;;;;17.59;67.83;101300.94;5071315;28;20035;-67
2023/05/05 00:40:06;;;;;;;19.00;17.30;;;;;;;17.49;68.52;101304.41;5072966;28;20107;-67
2023/05/05 00:42:42;;;;;;;19.60;17.70;;;;;;;17.45;69.00;101310.22;5072892;28;20099;-67
2023/05/05 00:45:09;;;;;;;19.35;17.42;;;;;;;17.46;68.85;101317.28;5071475;28;20039;-67
2023/05/05 00:47:34;;;;;;;18.58;16.70;;;;;;;17.39;69.29;101316.97;5070990;28;20027;-67
2023/05/05 00:50:00;;;;;;;19.90;17.95;;;;;;;17.51;68.79;101317.75;5072677;28;20375;-67
2023/05/05 00:52:25;;;;;;;20.63;18.42;;;;;;;17.47;69.12;101319.84;5072141;28;20040;-67
2023/05/05 00:54:51;;;;;;;20.48;18.48;;;;;;;17.39;69.47;101299.97;5072589;28;20031;-67
2023/05/05 00:57:19;;;;;;;22.10;19.83;;;;;;;17.32;70.04;101321.13;5072447;28;20389;-67
2023/05/05 00:59:45;;;;;;;22.60;19.08;;;;;;;17.35;69.84;101320.03;5070282;28;20374;-67
2023/05/05 01:02:11;;;;;;;20.25;18.35;;;;;;;17.29;70.13;101318.69;5072673;28;20028;-67
2023/05/05 01:04:38;;;;;;;20.45;18.52;;;;;;;17.24;70.39;101307.50;5072633;28;20471;-67
2023/05/05 01:07:17;;;;;;;21.42;19.17;;;;;;;17.37;69.77;101321.59;5071952;28;20035;-67
2023/05/05 01:09:51;;;;;;;21.90;19.67;;;;;;;17.32;69.97;101318.44;5072520;28;20367;-67
2023/05/05 01:12:32;;;;;;;19.77;18.08;;;;;;;17.46;68.89;101322.66;5070878;28;20031;-67
2023/05/05 01:15:16;;;;;;;21.13;18.08;;;;;;;17.46;68.91;101328.03;5070765;28;20089;-67
2023/05/05 01:17:54;;;;;;;21.85;19.80;;;;;;;17.34;69.83;101321.00;5073016;28;20107;-68
2023/05/05 01:20:31;;;;;;;20.63;18.60;;;;;;;17.42;69.50;101329.28;5072236;28;20052;-67
2023/05/05 01:23:03;;;;;;;20.05;18.20;;;;;;;17.35;69.67;101315.50;5071904;28;20032;-67
2023/05/05 01:25:53;;;;;;;21.15;19.30;;;;;;;17.46;69.47;101317.28;5072474;28;20031;-68
2023/05/05 01:28:49;;;;;;;21.42;19.52;;;;;;;17.48;69.58;101307.25;5072227;28;20051;-67
2023/05/05 01:31:17;;;;;;;21.85;19.60;;;;;;;17.37;70.16;101316.22;5072407;28;20078;-67
2023/05/05 01:33:50;;;;;;;20.05;18.13;;;;;;;17.35;70.10;101317.34;5071500;28;20078;-67
2023/05/05 01:36:31;;;;;;;20.55;18.67;;;;;;;17.42;69.69;101321.22;5071578;28;20024;-67
2023/05/05 01:39:00;;;;;;;22.85;18.52;;;;;;;17.30;70.44;101316.88;5071957;28;20027;-66
2023/05/05 01:41:30;;;;;;;21.58;19.15;;;;;;;17.13;71.66;101321.81;5072104;28;20051;-66
2023/05/05 01:44:01;;;;;;;20.92;19.02;;;;;;;17.13;71.78;101311.06;5072014;28;20032;-67
2023/05/05 01:46:30;;;;;;;21.33;19.13;;;;;;;16.96;71.86;101300.88;5071647;28;20017;-67
2023/05/05 01:48:57;;;;;;;21.70;19.60;;;;;;;17.00;72.06;101316.63;5070623;28;20028;-67
2023/05/05 01:51:26;;;;;;;20.65;18.65;;;;;;;17.14;71.10;101317.28;5071459;28;20056;-67
2023/05/05 01:53:56;;;;;;;20.97;19.00;;;;;;;16.93;71.96;101320.78;5072034;28;20104;-67
2023/05/05 01:56:23;;;;;;;22.85;20.60;;;;;;;16.86;72.41;101327.66;5070873;28;20028;-67
2023/05/05 01:58:50;;;;;;;20.80;19.00;;;;;;;17.03;71.53;101329.81;5071157;28;20027;-67
2023/05/05 02:01:17;;;;;;;22.42;19.65;;;;;;;16.88;72.11;101325.66;5071311;28;20464;-67
2023/05/05 02:03:47;;;;;;;22.00;19.98;;;;;;;16.52;73.16;101318.75;5071566;28;20037;-67
2023/05/05 02:06:13;;;;;;;;;;;;;;;17.00;69.22;101332.75;5070940;28;20024;-67
2023/05/05 02:08:46;;;;;;;22.42;20.23;;;;;;;16.82;71.42;101328.88;5070160;28;19912;-67
2023/05/05 02:11:12;;;;;;;22.10;19.88;;;;;;;16.52;73.08;101329.50;5070284;28;20032;-67
2023/05/05 02:13:41;;;;;;;20.88;18.98;;;;;;;16.58;72.80;101335.22;5070160;28;20029;-67
2023/05/05 02:16:08;;;;;;;23.30;20.80;;;;;;;16.48;72.87;101336.94;5071373;28;20036;-67
2023/05/05 02:18:37;;;;;;;24.33;20.75;;;;;;;16.41;73.38;101326.81;5071826;28;20035;-67
2023/05/05 02:21:03;;;;;;;;;;;;;;;16.76;70.11;101342.81;5070007;28;20399;-67
2023/05/05 02:23:29;;;;;;;24.40;21.88;;;;;;;16.18;73.75;101339.38;5070101;28;19912;-67
2023/05/05 02:25:58;;;;;;;22.70;20.48;;;;;;;16.25;73.02;101340.63;5069901;28;20169;-67
2023/05/05 02:28:35;;;;;;;;;;;;;;;16.50;70.63;101348.44;5071500;28;20029;-67
2023/05/05 02:31:03;;;;;;;23.95;21.85;;;;;;;15.93;74.31;101345.81;5069789;28;19912;-67
2023/05/05 02:33:33;;;;;;;22.95;20.83;;;;;;;15.99;73.92;101339.97;5070230;28;20020;-67
2023/05/05 02:36:05;;;;;;;23.77;21.52;;;;;;;15.89;74.97;101354.09;5071305;28;20055;-67
2023/05/05 02:38:31;;;;;;;23.10;21.00;;;;;;;15.83;74.55;101353.72;5071400;28;20035;-67
2023/05/05 02:41:00;;;;;;;24.98;22.33;;;;;;;15.64;75.06;101341.69;5071026;28;20060;-67
2023/05/05 02:43:30;;;;;;;23.50;21.10;;;;;;;15.43;76.17;101354.91;5071249;28;20016;-67
2023/05/05 02:45:55;;;;;;;23.15;20.95;;;;;;;15.43;75.76;101367.44;5069988;28;20021;-67
2023/05/05 02:48:21;;;;;;;24.25;22.00;;;;;;;15.44;75.33;101369.16;5103614;28;20078;-67
2023/05/05 02:50:46;;;;;;;24.58;22.15;;;;;;;15.51;75.28;101364.22;5071209;28;20020;-67
2023/05/05 02:53:14;;;;;;;23.48;21.38;;;;;;;15.24;75.90;101365.31;5070539;28;20071;-67
2023/05/05 02:56:24;;;;;;;22.85;20.80;;;;;;;15.45;74.69;101368.19;5069686;28;20029;-67
2023/05/05 02:59:31;;;;;;;22.88;20.90;;;;;;;15.45;74.57;101362.84;5064913;28;20024;-67
2023/05/05 03:02:11;;;;;;;22.92;20.48;;;;;;;15.36;75.12;101356.34;5055383;28;20039;-67
2023/05/05 03:04:47;;;;;;;22.92;20.80;;;;;;;15.44;74.70;101353.06;5070634;28;20039;-67
2023/05/05 03:07:25;;;;;;;22.10;19.95;;;;;;;15.40;74.59;101352.44;5069054;28;20024;-67
2023/05/05 03:09:56;;;;;;;22.25;20.25;;;;;;;15.27;75.28;101361.53;5070576;28;20111;-67
2023/05/05 03:12:27;;;;;;;22.13;20.15;;;;;;;15.34;74.79;101360.09;5071046;28;20040;-67
2023/05/05 03:14:56;;;;;;;22.48;20.40;;;;;;;15.08;75.79;101368.25;5069561;28;20159;-67
2023/05/05 03:17:23;;;;;;;22.17;19.80;;;;;;;15.11;75.93;101365.34;5069715;28;20459;-67
2023/05/05 03:19:50;;;;;;;21.48;19.38;;;;;;;14.93;76.00;101356.00;5070971;28;20053;-67
2023/05/05 03:22:17;;;;;;;21.85;19.95;;;;;;;14.80;77.09;101364.06;5072258;28;20357;-67
2023/05/05 03:24:48;;;;;;;22.13;20.13;;;;;;;14.86;76.91;101378.84;5075847;28;20424;-67
2023/05/05 03:27:13;;;;;;;20.48;18.48;;;;;;;14.94;76.60;101376.44;5074466;28;20070;-67
2023/05/05 03:29:39;;;;;;;22.33;20.23;;;;;;;14.72;77.21;101383.34;5074656;28;20100;-67
2023/05/05 03:32:05;;;;;;;21.42;19.58;;;;;;;14.87;76.83;101367.16;5073153;28;20035;-67
2023/05/05 03:34:30;;;;;;;21.55;19.33;;;;;;;14.80;76.87;101380.13;5074666;28;20442;-67
2023/05/05 03:36:56;;;;;;;21.17;19.35;;;;;;;14.58;77.67;101370.09;5074018;28;20055;-67
2023/05/05 03:39:22;;;;;;;21.27;19.48;;;;;;;14.67;77.23;101374.78;5073948;28;20502;-67
2023/05/05 03:41:48;;;;;;;23.52;21.23;;;;;;;14.72;78.30;101366.44;5074302;28;20032;-67
2023/05/05 03:44:13;;;;;;;21.90;20.10;;;;;;;14.74;77.82;101378.75;5074367;28;20039;-67
2023/05/05 03:46:38;;;;;;;23.58;20.38;;;;;;;14.75;77.25;101382.28;5074367;28;20027;-67
2023/05/05 03:49:04;;;;;;;22.98;20.63;;;;;;;14.56;78.34;101388.13;5074111;28;20047;-67
2023/05/05 03:51:30;;;;;;;23.27;21.08;;;;;;;14.73;78.00;101385.06;5106226;28;20060;-67
2023/05/05 03:53:55;;;;;;;23.77;21.35;;;;;;;14.74;77.73;101381.44;5106467;28;20051;-67
2023/05/05 03:56:21;;;;;;;21.77;19.85;;;;;;;14.66;77.93;101382.94;5106516;28;20060;-67
2023/05/05 03:58:46;;;;;;;21.98;20.00;;;;;;;14.46;78.21;101387.84;5073910;28;20020;-67
2023/05/05 04:01:14;;;;;;;22.83;20.52;;;;;;;14.46;78.33;101387.84;5073999;28;20421;-67
2023/05/05 04:03:39;;;;;;;22.20;20.17;;;;;;;14.59;78.02;101395.94;5074088;28;20052;-67
2023/05/05 04:06:05;;;;;;;20.90;18.75;;;;;;;14.60;77.43;101399.47;5072192;28;20048;-67
2023/05/05 04:08:33;;;;;;;20.45;18.55;;;;;;;14.42;78.24;101397.09;5072417;28;20107;-67
2023/05/05 04:11:01;;;;;;;21.08;19.13;;;;;;;14.45;77.79;101396.88;5072372;28;20020;-67
2023/05/05 04:13:26;;;;;;;21.10;19.15;;;;;;;14.40;77.77;101396.31;5071724;28;20064;-67
2023/05/05 04:15:51;;;;;;;20.35;18.40;;;;;;;14.40;77.92;101400.81;5055649;28;20060;-67
2023/05/05 04:18:17;;;;;;;20.05;18.13;;;;;;;14.34;78.01;101406.59;5072012;28;20101;-67
2023/05/05 04:20:45;;;;;;;19.85;18.05;;;;;;;14.40;78.17;101414.22;5073060;28;20045;-67
2023/05/05 04:23:13;;;;;;;19.48;17.88;;;;;;;14.35;78.02;101409.16;5072934;28;20426;-67
2023/05/05 04:25:38;;;;;;;19.90;18.17;;;;;;;14.44;77.80;101403.19;5072172;28;20127;-67
2023/05/05 04:28:04;;;;;;;19.90;18.20;;;;;;;14.41;77.87;101398.06;5054958;28;20523;-67
2023/05/05 04:30:31;;;;;;;19.88;18.08;;;;;;;14.41;77.83;101405.19;5072891;28;20103;-67
2023/05/05 04:32:56;;;;;;;18.90;17.15;;;;;;;14.23;77.72;101402.84;5073103;28;20024;-67
2023/05/05 04:35:22;;;;;;;19.27;17.42;;;;;;;14.36;77.71;101410.03;5072013;28;20078;-67
2023/05/05 04:37:47;;;;;;;18.35;16.48;;;;;;;14.29;78.10;101412.28;5072265;28;20099;-67
2023/05/05 04:40:13;;;;;;;19.35;17.65;;;;;;;14.30;78.11;101408.66;5071690;28;20028;-67
2023/05/05 04:42:41;;;;;;;19.33;17.60;;;;;;;14.19;78.51;101411.22;5073224;28;20067;-67
2023/05/05 04:45:07;;;;;;;19.60;17.55;;;;;;;14.27;78.51;101411.53;5072965;28;20365;-67
2023/05/05 04:47:38;;;;;;;20.58;18.45;;;;;;;14.21;79.00;101420.00;5071621;28;20068;-67
2023/05/05 04:50:04;;;;;;;20.17;18.30;;;;;;;14.26;77.90;101409.81;5104346;28;20472;-67
2023/05/05 04:52:30;;;;;;;19.77;17.85;;;;;;;14.44;77.63;101410.34;5070388;28;20040;-67
2023/05/05 04:54:55;;;;;;;19.88;17.80;;;;;;;14.25;78.07;101397.41;5072264;28;20066;-67
2023/05/05 04:57:23;;;;;;;18.98;17.13;;;;;;;14.26;78.39;101405.31;5070894;28;20039;-67
2023/05/05 04:59:51;;;;;;;19.38;17.70;;;;;;;14.33;77.90;101408.44;5072673;28;20016;-67
2023/05/05 05:02:16;;;;;;;19.73;17.98;;;;;;;14.13;78.50;101387.56;5070666;28;20066;-68
2023/05/05 05:04:45;;;;;;;18.67;16.95;;;;;;;14.22;78.50;101398.47;5072424;28;20410;-67
2023/05/05 05:07:13;;;;;;;20.13;18.23;;;;;;;14.22;78.79;101395.78;5071766;28;20115;-67
2023/05/05 05:09:38;;;;;;;19.10;17.52;;;;;;;14.32;78.36;101393.31;5072186;28;20033;-66
2023/05/05 05:12:06;;;;;;;19.52;17.80;;;;;;;14.40;78.14;101399.00;5072354;28;20031;-67
2023/05/05 05:14:38;;;;;;;20.48;18.52;;;;;;;14.32;78.59;101390.66;5072567;28;20055;-66
2023/05/05 05:17:07;;;;;;;19.95;18.00;;;;;;;14.41;78.29;101391.81;5072050;28;20035;-66
2023/05/05 05:19:33;;;;;;;19.80;18.08;;;;;;;14.46;77.84;101387.00;5072332;28;20060;-66
2023/05/05 05:21:58;;;;;;;20.38;18.48;;;;;;;14.48;78.01;101401.16;5071492;28;20032;-67
2023/05/05 05:24:24;;;;;;;20.48;18.50;;;;;;;14.48;78.52;101393.13;5070871;28;20020;-67
2023/05/05 05:26:53;;;;;;;19.63;17.73;;;;;;;14.60;78.06;101392.28;5072184;28;20056;-67
2023/05/05 05:29:21;;;;;;;21.90;19.85;;;;;;;14.43;78.84;101392.56;5071572;28;20032;-66
2023/05/05 05:31:47;;;;;;;21.13;19.20;;;;;;;14.56;78.28;101398.81;5072151;28;20028;-67
2023/05/05 05:34:12;;;;;;;21.05;18.88;;;;;;;14.69;77.86;101401.47;5071500;28;20028;-67
2023/05/05 05:36:38;;;;;;;20.88;18.90;;;;;;;14.86;77.23;101408.31;5070818;28;20059;-67
2023/05/05 05:39:03;;;;;;;20.52;18.67;;;;;;;14.76;77.85;101405.41;5071655;28;20474;-67
2023/05/05 05:41:31;;;;;;;19.83;18.08;;;;;;;15.02;76.30;101416.91;5070267;28;20029;-67
2023/05/05 05:43:59;;;;;;;20.88;18.83;;;;;;;14.97;77.07;101421.75;5070849;28;20024;-68
2023/05/05 05:46:24;;;;;;;21.80;19.63;;;;;;;15.10;76.91;101438.66;5071686;28;20024;-66
2023/05/05 05:48:49;;;;;;;21.38;19.17;;;;;;;15.08;75.87;101451.31;5087314;28;20036;-67
2023/05/05 05:51:15;;;;;;;20.98;19.00;;;;;;;15.11;76.93;101461.78;5069847;28;20043;-67
2023/05/05 05:53:43;;;;;;;20.27;18.48;;;;;;;15.17;75.61;101464.03;5072131;28;20027;-66
2023/05/05 05:56:08;;;;;;;20.63;18.48;;;;;;;15.27;76.21;101472.28;5071195;28;20387;-67
2023/05/05 05:58:34;;;;;;;21.05;18.90;;;;;;;15.34;76.07;101475.34;5070468;28;20028;-66
2023/05/05 06:00:59;;;;;;;20.45;18.25;;;;;;;15.42;75.85;101475.66;5070182;28;20142;-66
2023/05/05 06:03:27;;;;;;;19.73;17.90;;;;;;;15.35;75.70;101485.09;5068083;28;20052;-66
2023/05/05 06:05:53;;;;;;;19.05;17.17;;;;;;;15.53;75.47;101482.88;5069760;28;20029;-66
2023/05/05 06:08:18;;;;;;;19.38;17.45;;;;;;;15.59;75.58;101488.69;5071027;28;20564;-66
2023/05/05 06:10:43;;;;;;;20.05;18.17;;;;;;;15.58;75.01;101478.91;5071676;28;20036;-66
2023/05/05 06:13:13;;;;;;;20.67;18.60;;;;;;;15.87;75.05;101492.84;5071504;28;20380;-67
2023/05/05 06:15:41;;;;;;;19.02;17.33;;;;;;;15.94;75.14;101492.41;5071692;28;20036;-66
2023/05/05 06:18:07;;;;;;;20.08;18.20;;;;;;;16.06;74.98;101495.03;5071412;28;20361;-66
2023/05/05 06:20:32;;;;;;;20.85;18.92;;;;;;;16.13;74.58;101500.78;5069852;28;20078;-66
2023/05/05 06:23:00;;;;;;;21.85;19.75;;;;;;;16.12;74.65;101505.28;5069884;28;20067;-66
2023/05/05 06:25:28;;;;;;;20.73;18.67;;;;;;;16.30;74.50;101500.34;5071724;28;20442;-67
2023/05/05 06:27:53;;;;;;;19.42;17.55;;;;;;;16.49;74.28;101498.91;5070059;28;20587;-67
2023/05/05 06:30:18;;;;;;;19.23;17.42;;;;;;;16.58;73.39;101496.34;5069604;28;20124;-67
2023/05/05 06:32:44;;;;;;;17.98;16.30;;;;;;;16.65;73.34;101495.88;5053319;28;20025;-67
2023/05/05 06:35:09;;;;;;;19.52;17.25;;;;;;;16.79;72.99;101496.56;5071365;28;20028;-67
2023/05/05 06:37:35;;;;;;;19.15;17.15;;;;;;;16.88;72.75;101489.56;5071108;28;20047;-67
2023/05/05 06:40:03;;;;;;;19.15;17.25;;;;;;;16.80;73.21;101474.09;5070313;28;20035;-67
2023/05/05 06:42:29;;;;;;;18.35;16.48;;;;;;;17.04;73.52;101489.22;5071629;28;20101;-67
2023/05/05 06:44:55;;;;;;;18.48;16.52;;;;;;;17.07;72.69;101494.34;5071549;28;20487;-67
2023/05/05 06:47:20;;;;;;;20.02;18.00;;;;;;;17.14;73.17;101492.03;5071035;28;20050;-67
2023/05/05 06:49:46;;;;;;;19.27;17.38;;;;;;;17.22;72.33;101498.50;5071359;28;20028;-67
2023/05/05 06:52:13;;;;;;;18.45;16.55;;;;;;;17.30;71.47;101499.72;5103395;28;20028;-67
2023/05/05 06:54:39;;;;;;;17.98;16.25;;;;;;;17.31;70.42;101491.50;5070323;28;20028;-67
2023/05/05 06:57:05;;;;;;;18.13;16.20;;;;;;;17.37;70.93;101492.84;5105157;28;20183;-66
2023/05/05 06:59:31;;;;;;;17.70;15.88;;;;;;;17.47;70.38;101497.38;5107918;28;20182;-66
2023/05/05 07:01:59;;;;;;;16.77;15.10;;;;;;;17.62;70.29;101499.78;5074250;28;20093;-66
2023/05/05 07:04:25;;;;;;;14.35;13.05;;;;;;;17.67;67.62;101500.22;5074702;28;20024;-66
2023/05/05 07:06:51;;;;;;;14.45;12.88;;;;;;;17.68;67.76;101502.81;5074408;28;20032;-66
2023/05/05 07:09:17;;;;;;;16.33;14.73;;;;;;;17.75;68.36;101488.84;5107471;28;20028;-67
2023/05/05 07:11:42;;;;;;;15.63;14.05;;;;;;;17.93;67.87;101508.88;5074706;28;20033;-66
2023/05/05 07:14:08;;;;;;;15.00;13.57;;;;;;;18.02;67.28;101509.94;5073540;28;20033;-66
2023/05/05 07:16:35;;;;;;;13.48;11.50;;;;;;;18.14;65.28;101517.81;5106905;28;20497;-66
2023/05/05 07:19:06;;;;;;;12.50;11.25;;;;;;;18.23;64.34;101513.50;5107330;28;20098;-67
2023/05/05 07:21:35;;;;;;;11.55;9.95;;;;;;;18.31;63.96;101526.31;5106783;28;20049;-67
2023/05/05 07:24:04;;;;;;;11.88;9.85;;;;;;;18.16;63.95;101520.41;5074754;28;20056;-67
2023/05/05 07:26:30;;;;;;;11.60;10.50;;;;;;;17.95;64.25;101520.38;5074714;28;20056;-67
2023/05/05 07:28:57;;;;;;;11.15;9.90;;;;;;;17.92;64.73;101526.00;5074615;28;20063;-67
2023/05/05 07:31:23;;;;;;;11.57;10.07;;;;;;;17.84;66.07;101509.63;5072894;28;20020;-67
2023/05/05 07:33:48;;;;;;;12.73;10.63;;;;;;;17.91;64.49;101511.69;5107150;28;20032;-67
2023/05/05 07:36:17;;;;;;;11.57;10.45;;;;;;;17.87;66.06;101515.63;5073835;28;20025;-67
2023/05/05 07:38:43;;;;;;;11.55;10.35;;;;;;;17.82;65.73;101512.44;5074586;28;20028;-67
2023/05/05 07:41:10;;;;;;;11.80;10.52;;;;;;;17.95;66.82;101503.38;5106913;28;20127;-67
2023/05/05 07:43:36;;;;;;;12.00;10.65;;;;;;;18.17;66.24;101508.63;5074342;28;20130;-66
2023/05/05 07:46:02;;;;;;;10.77;9.52;;;;;;;18.34;65.89;101485.66;5073955;28;20092;-67
2023/05/05 07:48:27;;;;;;;10.98;9.38;;;;;;;18.49;63.83;101496.94;5074300;28;20032;-67
2023/05/05 07:50:53;;;;;;;11.10;9.35;;;;;;;18.48;64.32;101493.41;5074252;28;20059;-67
2023/05/05 07:53:21;;;;;;;12.35;9.70;;;;;;;18.56;64.20;101490.91;5055762;28;20383;-67
2023/05/05 07:55:46;;;;;;;14.13;9.57;;;;;;;18.61;64.13;101487.81;5074158;28;20031;-67
2023/05/05 07:58:12;;;;;;;11.48;8.18;;;;;;;18.88;63.47;101492.66;5074065;28;20024;-67
2023/05/05 08:00:38;;;;;;;9.75;6.95;;;;;;;19.06;60.76;101487.50;5074070;28;20020;-67
2023/05/05 08:03:03;;;;;;;9.88;6.65;;;;;;;19.42;60.66;101487.88;5072632;28;20086;-67
2023/05/05 08:05:31;;;;;;;10.15;8.05;;;;;;;19.68;60.74;101499.91;5073931;28;20013;-67
2023/05/05 08:07:56;;;;;;;9.77;8.75;;;;;;;19.82;59.94;101492.34;5071816;28;20020;-67
2023/05/05 08:10:22;;;;;;;8.80;7.65;;;;;;;19.96;60.10;101500.88;5072606;28;20062;-67
2023/05/05 08:12:47;;;;;;;9.88;7.47;;;;;;;20.06;60.01;101494.63;5073589;28;20106;-67
2023/05/05 08:15:13;;;;;;;10.02;7.35;;;;;;;19.92;57.47;101494.09;5073313;28;20071;-67
2023/05/05 08:17:50;;;;;;;10.38;6.18;;;;;;;19.98;57.50;101502.63;5073896;28;20432;-67
2023/05/05 08:20:19;;;;;;;7.68;6.35;;;;;;;20.00;57.56;101501.47;5072188;28;20174;-67
2023/05/05 08:22:45;;;;;;;83.72;12.90;;;;;;;20.16;58.30;101509.00;5071962;28;20383;-66
2023/05/05 08:25:12;;;;;;;111.70;14.30;;;;;;;20.22;59.25;101503.03;5073679;28;20031;-66
2023/05/05 08:27:39;;;;;;;10.00;6.85;;;;;;;20.15;58.18;101510.00;5072491;28;20070;-68
2023/05/05 08:30:08;;;;;;;9.35;6.65;;;;;;;20.17;58.48;101508.84;5072007;28;20025;-68
2023/05/05 08:32:34;;;;;;;10.43;6.95;;;;;;;20.01;58.14;101505.03;5073467;28;20446;-66
2023/05/05 08:35:02;;;;;;;10.30;6.70;;;;;;;19.98;58.15;101506.16;5073434;28;20112;-67
2023/05/05 08:37:29;;;;;;;9.48;5.43;;;;;;;19.80;58.87;101497.91;5071581;28;20032;-67
2023/05/05 08:39:56;;;;;;;9.45;7.40;;;;;;;19.70;59.06;101502.44;5073398;28;20024;-67
2023/05/05 08:42:22;;;;;;;13.73;7.53;;;;;;;19.67;59.54;101508.97;5073405;28;20035;-66
2023/05/05 08:44:47;;;;;;;11.80;7.38;;;;;;;19.51;59.32;101504.09;5073047;28;20021;-67
2023/05/05 08:47:14;;;;;;;9.45;7.68;;;;;;;19.46;58.31;101509.03;5072851;28;20606;-67
2023/05/05 08:49:46;;;;;;;6.93;6.22;;;;;;;19.41;59.80;101507.75;5073466;28;20383;-67
2023/05/05 08:52:21;;;;;;;9.02;6.57;;;;;;;19.33;59.95;101510.31;5072613;28;20103;-67
2023/05/05 08:54:58;;;;;;;7.82;6.97;;;;;;;19.40;61.08;101514.13;5071866;28;20028;-66
2023/05/05 08:57:45;;;;;;;7.03;6.30;;;;;;;19.32;60.99;101506.72;5072974;28;20053;-66
2023/05/05 09:00:20;;;;;;;10.80;6.28;;;;;;;19.29;60.68;101507.00;5071638;28;20032;-67
2023/05/05 09:02:46;;;;;;;7.53;6.60;;;;;;;19.41;60.44;101508.63;5072734;28;20021;-66
2023/05/05 09:05:11;;;;;;;10.07;6.53;;;;;;;19.45;59.71;101504.66;5071594;28;20029;-67
2023/05/05 09:07:40;;;;;;;9.30;6.07;;;;;;;19.48;61.33;101498.97;5072417;28;20024;-66
2023/05/05 09:10:07;;;;;;;8.93;6.30;;;;;;;19.57;59.93;101497.28;5071650;28;20086;-66
2023/05/05 09:12:34;;;;;;;7.47;5.97;;;;;;;19.59;59.33;101510.63;5072402;28;20060;-67
2023/05/05 09:15:02;;;;;;;7.18;5.72;;;;;;;19.48;56.65;101508.91;5071082;28;20509;-67
2023/05/05 09:17:28;;;;;;;10.02;6.00;;;;;;;19.59;59.00;101511.50;5071294;28;20027;-66
2023/05/05 09:20:06;;;;;;;11.23;6.68;;;;;;;19.65;59.20;101502.88;5071836;28;20040;-65
2023/05/05 09:22:45;;;;;;;9.75;6.70;;;;;;;19.73;58.91;101521.91;5071999;28;20028;-65
2023/05/05 09:25:12;;;;;;;10.00;6.13;;;;;;;19.62;59.03;101524.72;5071169;28;20442;-65
2023/05/05 09:27:44;;;;;;;9.82;6.20;;;;;;;19.51;59.98;101522.97;5072416;28;20016;-65
2023/05/05 09:30:13;;;;;;;7.38;6.47;;;;;;;19.35;58.72;101522.63;5071322;28;20028;-65
2023/05/05 09:32:48;;;;;;;9.63;7.15;;;;;;;19.24;59.39;101526.31;5072511;28;20012;-66
2023/05/05 09:35:14;;;;;;;7.88;6.85;;;;;;;19.22;62.56;101520.19;5054192;28;20028;-66
2023/05/05 09:37:40;;;;;;;9.45;7.57;;;;;;;19.11;61.69;101517.59;5070822;28;20490;-65
2023/05/05 09:40:08;;;;;;;11.40;7.10;;;;;;;19.15;60.90;101523.56;5072339;28;20099;-65
2023/05/05 09:42:38;;;;;;;9.65;7.13;;;;;;;19.00;59.80;101513.16;5071861;28;20103;-65
2023/05/05 09:45:25;;;;;;;9.60;7.55;;;;;;;19.14;58.96;101514.63;5072231;28;20021;-65
2023/05/05 09:47:51;;;;;;;8.65;6.43;;;;;;;19.00;58.67;101525.75;5072011;28;20032;-65
2023/05/05 09:50:22;;;;;;;7.78;5.38;;;;;;;18.96;59.87;101517.09;5070805;28;20071;-65
2023/05/05 09:52:58;;;;;;;10.63;7.53;;;;;;;18.99;60.49;101518.66;5070226;28;20028;-65
2023/05/05 09:55:24;;;;;;;8.40;7.10;;;;;;;18.88;59.63;101519.59;5071934;28;20029;-65
2023/05/05 09:57:49;;;;;;;9.13;6.65;;;;;;;18.88;59.78;101514.22;5071474;28;20086;-65
2023/05/05 10:00:18;;;;;;;8.85;6.28;;;;;;;18.93;62.06;101513.81;5071892;28;20028;-65
2023/05/05 10:02:44;;;;;;;7.38;6.30;;;;;;;18.87;61.71;101511.66;5070609;28;20044;-65
2023/05/05 10:05:12;;;;;;;7.07;5.85;;;;;;;18.92;62.91;101520.22;5071688;28;20016;-65
2023/05/05 10:07:40;;;;;;;7.35;6.65;;;;;;;18.79;63.11;101517.72;5071432;28;20485;-65
2023/05/05 10:10:08;;;;;;;9.80;7.35;;;;;;;18.70;63.10;101515.78;5071954;28;20132;-65
2023/05/05 10:12:38;;;;;;;9.60;7.07;;;;;;;18.69;62.17;101517.63;5071589;28;20515;-65
2023/05/05 10:15:05;;;;;;;8.98;6.05;;;;;;;18.63;61.55;101520.03;5070501;28;20128;-65
2023/05/05 10:17:34;;;;;;;5.65;4.97;;;;;;;18.48;60.08;101522.19;5071731;28;20396;-65
2023/05/05 10:20:00;;;;;;;6.93;5.80;;;;;;;18.35;63.29;101525.94;5071502;28;20507;-66
2023/05/05 10:22:32;;;;;;;7.85;6.15;;;;;;;18.36;65.04;101511.47;5071192;28;20020;-64
2023/05/05 10:25:08;;;;;;;13.77;7.57;;;;;;;18.46;65.93;101519.63;5070110;28;20017;-70
2023/05/05 10:27:50;;;;;;;10.90;8.75;;;;;;;18.47;67.09;101521.34;5071502;28;20032;-65
2023/05/05 10:30:24;;;;;;;22.10;8.88;;;;;;;18.45;67.72;101523.31;5070367;28;20029;-66
2023/05/05 10:33:24;;;;;;;13.68;6.72;;;;;;;18.42;66.25;101520.03;5075435;28;20108;-66
2023/05/05 10:35:52;;;;;;;15.48;8.38;;;;;;;18.38;69.26;101533.75;5052285;28;20041;-66
2023/05/05 10:38:21;;;;;;;19.15;9.85;;;;;;;18.32;72.30;101528.00;5075071;28;20117;-65
2023/05/05 10:40:47;;;;;;;15.27;10.43;;;;;;;18.24;73.14;101536.75;5075364;28;20020;-66
2023/05/05 10:43:18;;;;;;;16.15;11.07;;;;;;;18.24;76.99;101538.63;5074161;28;20537;-66
2023/05/05 10:45:44;;;;;;;12.65;10.30;;;;;;;18.10;76.71;101542.44;5075464;28;20077;-66
2023/05/05 10:48:17;;;;;;;11.00;9.73;;;;;;;18.02;76.40;101547.63;5075651;28;20024;-66
2023/05/05 10:50:55;;;;;;;10.32;9.18;;;;;;;17.88;77.12;101529.91;5074256;28;20540;-67
2023/05/05 10:53:24;;;;;;;10.07;8.75;;;;;;;17.82;77.21;101547.41;5074774;28;20024;-66
2023/05/05 10:56:07;;;;;;;;;;;;;;;18.10;74.65;101535.22;5075481;28;20025;-66
2023/05/05 10:58:38;;;;;;;49.67;13.20;;;;;;;17.70;81.00;101533.13;5107984;28;19967;-65
2023/05/05 11:01:05;;;;;;;58.55;13.90;;;;;;;17.65;84.94;101535.34;5073993;28;20031;-65
2023/05/05 11:03:31;;;;;;;219.15;31.55;;;;;;;17.46;85.91;101540.50;5073747;28;20036;-66
2023/05/05 11:06:03;;;;;;;71.80;16.08;;;;;;;17.38;86.07;101553.72;5074159;28;20551;-66
2023/05/05 11:08:32;;;;;;;16.15;10.82;;;;;;;17.22;88.04;101552.25;5073983;28;20471;-66
2023/05/05 11:10:58;;;;;;;16.85;10.75;;;;;;;17.22;86.53;101556.78;5073262;28;20080;-66
2023/05/05 11:13:24;;;;;;;18.85;11.80;;;;;;;17.39;89.52;101558.97;5074096;28;20020;-66
2023/05/05 11:15:53;;;;;;;18.25;10.93;;;;;;;17.25;90.22;101549.31;5074323;28;20037;-65
2023/05/05 11:18:39;;;;;;;14.80;11.18;;;;;;;17.41;89.69;101553.47;5072921;28;20028;-66
2023/05/05 11:21:14;;;;;;;18.60;12.27;;;;;;;17.27;91.28;101548.38;5072707;28;20063;-65